Time;durP1;ratioP1;P1;durP2;ratioP2;P2;SDS_P1;SDS_P2;PMS_P1;PMS_P2;Temp;Humidity;BMP_temperature;BMP_pressure;BME280_temperature;BME280_humidity;BME280_pressure;Samples;Min_cycle;Max_cycle;Signal;HPM_P1;HPM_P2
2023/07/10 00:00:40;;;;;;;;;23.80;21.20;;;;;21.97;66.26;100148.50;5033489;28;8854;-59
2023/07/10 00:03:08;;;;;;;;;34.60;30.40;;;;;21.91;66.30;100148.38;5033807;28;8832;-60
2023/07/10 00:05:36;;;;;;;;;33.20;31.20;;;;;21.86;67.11;100156.28;5018071;28;8956;-58
2023/07/10 00:08:04;;;;;;;;;29.80;26.60;;;;;21.80;66.82;100144.28;5014673;28;8836;-60
2023/07/10 00:10:32;;;;;;;;;30.20;27.60;;;;;21.75;67.00;100146.75;5031649;28;8943;-59
2023/07/10 00:12:59;;;;;;;;;37.00;28.80;;;;;21.72;66.94;100144.38;5032965;28;8846;-60
2023/07/10 00:15:27;;;;;;;;;27.40;21.60;;;;;21.68;67.42;100147.66;5032989;28;9529;-58
2023/07/10 00:17:55;;;;;;;;;32.80;31.20;;;;;21.64;67.01;100154.47;5013407;28;8822;-60
2023/07/10 00:20:23;;;;;;;;;19.20;18.60;;;;;21.59;67.80;100155.03;5013169;28;8819;-60
2023/07/10 00:22:50;;;;;;;;;35.00;28.60;;;;;21.53;67.37;100157.63;5031070;28;8847;-59
2023/07/10 00:25:18;;;;;;;;;32.40;28.60;;;;;21.47;68.04;100151.09;5032919;28;8864;-58
2023/07/10 00:27:46;;;;;;;;;31.60;30.00;;;;;21.44;68.16;100146.06;5030957;28;8814;-59
2023/07/10 00:30:14;;;;;;;;;29.60;28.20;;;;;21.38;68.06;100149.50;5021631;28;8862;-58
2023/07/10 00:32:42;;;;;;;;;31.20;30.20;;;;;21.33;67.97;100154.63;5024872;28;8857;-59
2023/07/10 00:35:10;;;;;;;;;30.00;26.00;;;;;21.31;68.15;100150.41;5013192;28;8814;-59
2023/07/10 00:37:37;;;;;;;;;38.80;34.40;;;;;21.26;67.95;100142.84;5013176;28;8948;-59
2023/07/10 00:40:05;;;;;;;;;37.00;32.80;;;;;21.24;68.49;100155.75;5014000;28;8819;-59
2023/07/10 00:42:33;;;;;;;;;34.80;30.00;;;;;21.20;68.64;100150.88;5012839;28;8845;-60
2023/07/10 00:45:01;;;;;;;;;40.60;37.40;;;;;21.17;68.29;100140.41;5013315;28;8858;-58
2023/07/10 00:47:29;;;;;;;;;27.00;24.60;;;;;21.13;68.72;100142.66;5023849;28;9490;-59
2023/07/10 00:49:56;;;;;;;;;38.60;32.60;;;;;21.11;69.00;100144.69;5031984;28;8835;-58
2023/07/10 00:52:24;;;;;;;;;42.20;34.20;;;;;21.09;68.74;100148.59;5032262;28;8828;-60
2023/07/10 00:54:52;;;;;;;;;36.00;33.40;;;;;21.08;68.91;100138.81;5032417;28;8859;-59
2023/07/10 00:57:20;;;;;;;;;37.80;31.60;;;;;21.06;69.25;100136.31;5033359;28;9066;-59
2023/07/10 00:59:48;;;;;;;;;35.60;30.60;;;;;21.04;68.71;100148.34;5017444;28;8906;-59
2023/07/10 01:02:15;;;;;;;;;38.80;32.60;;;;;21.03;69.05;100142.06;5015490;28;8830;-58
2023/07/10 01:04:44;;;;;;;;;40.60;34.40;;;;;21.02;68.60;100145.81;5016210;28;9487;-59
2023/07/10 01:07:13;;;;;;;;;33.20;30.60;;;;;21.01;68.77;100144.13;5023046;28;9489;-58
2023/07/10 01:09:40;;;;;;;;;36.40;32.40;;;;;21.02;68.65;100144.97;5017486;28;9001;-57
2023/07/10 01:12:08;;;;;;;;;45.80;39.00;;;;;21.03;68.87;100152.06;5035224;28;8808;-58
2023/07/10 01:14:36;;;;;;;;;31.80;26.20;;;;;21.01;68.76;100154.97;5016020;28;8834;-59
2023/07/10 01:17:04;;;;;;;;;29.60;27.80;;;;;21.00;69.14;100156.00;5027965;28;8822;-59
2023/07/10 01:19:31;;;;;;;;;43.40;40.60;;;;;20.99;69.19;100161.56;5015443;28;8849;-58
2023/07/10 01:22:00;;;;;;;;;42.20;38.40;;;;;20.97;69.12;100169.88;5022734;28;8867;-59
2023/07/10 01:24:29;;;;;;;;;43.20;35.20;;;;;20.95;69.22;100165.69;5035806;28;8886;-60
2023/07/10 01:26:57;;;;;;;;;33.20;31.20;;;;;20.93;68.89;100167.72;5035635;28;8832;-60
2023/07/10 01:29:25;;;;;;;;;30.40;28.00;;;;;20.92;69.21;100168.75;5035940;28;8852;-57
2023/07/10 01:31:53;;;;;;;;;42.20;39.60;;;;;20.96;68.80;100164.66;5035786;28;8828;-60
2023/07/10 01:34:21;;;;;;;;;27.20;24.40;;;;;21.00;69.15;100174.94;5035543;28;8830;-60
2023/07/10 01:36:48;;;;;;;;;39.20;35.60;;;;;21.08;68.60;100174.88;5034898;28;8848;-60
2023/07/10 01:39:16;;;;;;;;;44.20;37.00;;;;;21.13;68.71;100168.91;5035663;28;8832;-60
2023/07/10 01:41:44;;;;;;;;;43.00;36.80;;;;;21.16;68.15;100173.94;5035218;28;8848;-59
2023/07/10 01:44:12;;;;;;;;;30.60;24.60;;;;;21.18;68.29;100156.47;5036079;28;9462;-58
2023/07/10 01:46:39;;;;;;;;;35.00;30.00;;;;;21.20;68.08;100162.53;5035659;28;8852;-60
2023/07/10 01:49:07;;;;;;;;;45.00;41.00;;;;;21.21;68.44;100160.69;5029108;28;8841;-60
2023/07/10 01:51:35;;;;;;;;;35.20;32.20;;;;;21.22;68.38;100156.94;5015809;28;8875;-59
2023/07/10 01:54:03;;;;;;;;;37.00;36.00;;;;;21.25;68.01;100162.03;5028839;28;8848;-59
2023/07/10 01:56:31;;;;;;;;;45.40;39.60;;;;;21.27;68.16;100157.25;5035403;28;9485;-61
2023/07/10 01:58:58;;;;;;;;;38.40;34.20;;;;;21.30;68.00;100160.44;5021858;28;9507;-60
2023/07/10 02:01:26;;;;;;;;;37.80;32.60;;;;;21.30;68.71;100165.84;5015179;28;8814;-60
2023/07/10 02:03:54;;;;;;;;;42.00;37.00;;;;;21.31;68.17;100174.81;5015403;28;8918;-59
2023/07/10 02:06:22;;;;;;;;;39.00;36.00;;;;;21.31;68.47;100167.53;5015440;28;8932;-60
2023/07/10 02:08:50;;;;;;;;;40.00;35.60;;;;;21.31;68.58;100172.09;5016881;28;8959;-59
2023/07/10 02:11:18;;;;;;;;;45.60;42.00;;;;;21.33;68.37;100167.34;5035125;28;8812;-60
2023/07/10 02:13:46;;;;;;;;;37.40;35.40;;;;;21.34;68.64;100177.16;5035329;28;8828;-60
2023/07/10 02:16:13;;;;;;;;;43.20;38.00;;;;;21.35;68.35;100176.13;5034696;28;8824;-60
2023/07/10 02:18:41;;;;;;;;;45.00;42.80;;;;;21.35;nan;100176.13;5030624;28;8818;-60
2023/07/10 02:21:09;;;;;;;;;40.60;39.80;;;;;21.35;68.26;100184.25;5015005;28;8818;-60
2023/07/10 02:23:36;;;;;;;;;36.20;33.00;;;;;21.34;69.07;100188.00;5015446;28;8826;-59
2023/07/10 02:26:04;;;;;;;;;42.60;37.60;;;;;21.35;68.82;100195.09;5015081;28;9580;-59
2023/07/10 02:28:33;;;;;;;;;49.40;42.20;;;;;21.34;68.80;100188.00;5021779;28;9506;-59
2023/07/10 02:31:01;;;;;;;;;40.20;37.80;;;;;21.34;68.83;100188.81;5034415;28;8846;-59
2023/07/10 02:33:28;;;;;;;;;42.20;38.60;;;;;21.35;68.90;100197.81;5034600;28;8828;-59
2023/07/10 02:35:56;;;;;;;;;36.60;31.80;;;;;21.37;68.43;100191.19;5034911;28;9502;-59
2023/07/10 02:38:24;;;;;;;;;34.60;29.60;;;;;21.40;68.58;100196.22;5034551;28;8846;-58
2023/07/10 02:40:51;;;;;;;;;43.20;37.80;;;;;21.42;68.61;100190.63;5034575;28;9523;-60
2023/07/10 02:43:19;;;;;;;;;39.00;35.80;;;;;21.44;68.22;100191.28;5034694;28;8858;-58
2023/07/10 02:45:47;;;;;;;;;41.80;36.40;;;;;21.47;68.56;100182.75;5033955;28;8838;-58
2023/07/10 02:48:15;;;;;;;;;39.40;36.40;;;;;21.49;68.39;100180.72;5033884;28;8866;-60
2023/07/10 02:50:43;;;;;;;;;35.40;30.60;;;;;21.51;68.07;100186.81;5034565;28;8844;-60
2023/07/10 02:53:10;;;;;;;;;44.60;40.60;;;;;21.51;68.15;100182.25;5034475;28;8855;-59
2023/07/10 02:55:40;;;;;;;;;42.80;37.00;;;;;21.51;68.60;100182.25;5018574;28;8818;-59
2023/07/10 02:58:08;;;;;;;;;41.40;36.20;;;;;21.53;68.55;100182.88;5018533;28;9672;-60
2023/07/10 03:00:36;;;;;;;;;40.40;36.00;;;;;21.56;68.20;100190.63;5034347;28;8832;-60
2023/07/10 03:03:04;;;;;;;;;36.40;30.40;;;;;21.56;68.38;100187.09;5034382;28;8954;-57
2023/07/10 03:05:31;;;;;;;;;39.60;35.80;;;;;21.56;67.99;100184.38;5032057;28;8828;-59
2023/07/10 03:07:59;;;;;;;;;49.00;41.00;;;;;21.58;67.91;100196.72;5034597;28;8847;-60
2023/07/10 03:10:27;;;;;;;;;41.60;37.40;;;;;21.58;68.49;100195.88;5032282;28;8846;-59
2023/07/10 03:12:54;;;;;;;;;42.60;37.40;;;;;21.58;68.29;100195.88;5033781;28;8828;-59
2023/07/10 03:15:22;;;;;;;;;45.20;41.00;;;;;21.57;68.50;100194.19;5033633;28;8824;-59
2023/07/10 03:17:50;;;;;;;;;39.60;36.00;;;;;21.55;68.13;100190.84;5033829;28;8966;-60
2023/07/10 03:20:18;;;;;;;;;28.40;25.60;;;;;21.53;68.48;100195.59;5020396;28;9510;-60
2023/07/10 03:22:46;;;;;;;;;44.60;37.80;;;;;21.51;68.22;100195.78;5033676;28;9494;-58
2023/07/10 03:25:14;;;;;;;;;52.80;43.00;;;;;21.52;68.09;100202.03;5034066;28;8844;-58
2023/07/10 03:27:41;;;;;;;;;46.60;41.20;;;;;21.51;68.47;100203.91;5033983;28;8827;-60
2023/07/10 03:30:09;;;;;;;;;48.20;40.20;;;;;21.50;68.11;100199.50;5034479;28;8920;-60
2023/07/10 03:32:37;;;;;;;;;39.80;31.40;;;;;21.51;68.57;100198.50;5034583;28;8840;-59
2023/07/10 03:35:05;;;;;;;;;44.00;40.60;;;;;21.48;68.12;100192.59;5033651;28;8928;-60
2023/07/10 03:37:32;;;;;;;;;45.00;41.20;;;;;21.49;68.48;100191.56;5033808;28;8812;-61
2023/07/10 03:40:00;;;;;;;;;39.60;38.20;;;;;21.47;68.61;100196.31;5033561;28;8832;-61
2023/07/10 03:42:28;;;;;;;;;30.60;26.80;;;;;21.45;68.32;100199.22;5033055;28;8971;-60
2023/07/10 03:44:56;;;;;;;;;43.00;38.20;;;;;21.43;68.67;100208.56;5033408;28;8928;-59
2023/07/10 03:47:24;;;;;;;;;35.40;27.80;;;;;21.42;68.46;100209.59;5033313;28;8848;-60
2023/07/10 03:49:51;;;;;;;;;37.20;33.00;;;;;21.40;68.84;100214.38;5033412;28;8850;-59
2023/07/10 03:52:19;;;;;;;;;42.40;33.20;;;;;21.39;68.20;100208.09;5034052;28;8832;-60
2023/07/10 03:54:47;;;;;;;;;37.80;33.80;;;;;21.36;68.57;100203.06;5033407;28;8832;-59
2023/07/10 03:57:15;;;;;;;;;34.80;30.20;;;;;21.36;68.77;100210.34;5033426;28;8824;-59
2023/07/10 03:59:43;;;;;;;;;36.80;31.80;;;;;21.35;68.93;100216.78;5033441;28;8843;-60
2023/07/10 04:02:10;;;;;;;;;32.20;30.60;;;;;21.33;68.69;100216.97;5033118;28;8840;-58
2023/07/10 04:04:38;;;;;;;;;32.20;29.80;;;;;21.32;69.04;100207.16;5032696;28;8812;-60
2023/07/10 04:07:06;;;;;;;;;41.00;37.00;;;;;21.31;68.89;100210.03;5032877;28;8854;-60
2023/07/10 04:09:34;;;;;;;;;27.20;24.20;;;;;21.30;68.64;100195.66;5020673;28;8834;-60
2023/07/10 04:12:02;;;;;;;;;30.20;24.60;;;;;21.30;69.03;100192.09;5013541;28;8833;-60
2023/07/10 04:14:29;;;;;;;;;38.60;34.20;;;;;21.32;68.72;100199.03;5014346;28;8837;-60
2023/07/10 04:16:58;;;;;;;;;41.20;33.20;;;;;21.33;68.58;100210.72;5013510;28;8818;-60
2023/07/10 04:19:26;;;;;;;;;35.80;33.20;;;;;21.31;68.99;100212.75;5029661;28;8967;-59
2023/07/10 04:21:54;;;;;;;;;35.80;33.40;;;;;21.29;69.19;100209.38;5033067;28;9485;-59
2023/07/10 04:24:22;;;;;;;;;36.20;28.40;;;;;21.28;68.90;100207.69;5016726;28;8851;-59
2023/07/10 04:26:49;;;;;;;;;37.00;30.40;;;;;21.28;68.91;100210.41;5013444;28;8834;-59
2023/07/10 04:29:17;;;;;;;;;36.20;30.20;;;;;21.28;68.92;100207.69;5013223;28;8834;-59
2023/07/10 04:31:45;;;;;;;;;21.00;17.80;;;;;21.29;69.13;100204.81;5013427;28;8837;-59
2023/07/10 04:34:13;;;;;;;;;27.40;23.00;;;;;21.30;69.12;100217.34;5013240;28;9459;-59
2023/07/10 04:36:42;;;;;;;;;30.20;28.20;;;;;21.30;68.74;100225.47;5013368;28;8822;-59
2023/07/10 04:39:10;;;;;;;;;35.40;29.20;;;;;21.31;69.20;100229.84;5018869;28;9444;-60
2023/07/10 04:41:37;;;;;;;;;41.00;34.20;;;;;21.30;68.90;100236.31;5012819;28;8862;-60
2023/07/10 04:44:05;;;;;;;;;37.00;32.80;;;;;21.29;69.20;100237.34;5013669;28;8826;-58
2023/07/10 04:46:33;;;;;;;;;31.20;27.80;;;;;21.29;69.25;100234.63;5012955;28;8837;-58
2023/07/10 04:49:01;;;;;;;;;38.80;31.40;;;;;21.30;69.25;100241.72;5012880;28;8810;-58
2023/07/10 04:51:29;;;;;;;;;34.00;31.20;;;;;21.28;68.76;100242.94;5012833;28;8834;-57
2023/07/10 04:53:57;;;;;;;;;34.00;31.40;;;;;21.27;69.18;100235.81;5012423;28;8964;-59
2023/07/10 04:56:24;;;;;;;;;40.40;33.00;;;;;21.24;69.27;100241.59;5012763;28;8834;-60
2023/07/10 04:58:52;;;;;;;;;51.80;44.40;;;;;21.23;69.21;100245.34;5016505;28;8846;-60
2023/07/10 05:01:20;;;;;;;;;45.40;42.00;;;;;21.22;69.21;100254.50;5032120;28;8828;-58
2023/07/10 05:03:48;;;;;;;;;37.80;31.60;;;;;21.20;69.47;100256.53;5030134;28;8858;-60
2023/07/10 05:06:15;;;;;;;;;52.20;38.40;;;;;21.21;69.14;100255.53;5032283;28;8840;-59
2023/07/10 05:08:43;;;;;;;;;39.60;36.60;;;;;21.23;69.13;100258.88;5017554;28;8808;-59
2023/07/10 05:11:11;;;;;;;;;38.60;33.60;;;;;21.23;68.98;100262.44;5012620;28;8837;-59
2023/07/10 05:13:39;;;;;;;;;21.00;16.20;;;;;21.23;68.82;100267.00;5012420;28;9488;-61
2023/07/10 05:16:07;;;;;;;;;28.20;25.00;;;;;21.17;69.27;100263.16;5013748;28;8834;-60
2023/07/10 05:18:35;;;;;;;;;32.00;26.60;;;;;21.13;69.52;100277.25;5029022;28;8816;-61
2023/07/10 05:21:03;;;;;;;;;25.20;23.40;;;;;21.08;69.70;100282.38;5032373;28;8820;-61
2023/07/10 05:23:31;;;;;;;;;26.40;21.60;;;;;21.02;69.45;100285.81;5032002;28;8820;-59
2023/07/10 05:25:59;;;;;;;;;32.60;29.60;;;;;20.97;69.59;100289.03;5031576;28;8843;-60
2023/07/10 05:28:27;;;;;;;;;31.40;26.80;;;;;20.94;69.85;100293.97;5031893;28;8874;-61
2023/07/10 05:30:54;;;;;;;;;26.80;23.20;;;;;20.90;70.23;100292.66;5031701;28;8947;-59
2023/07/10 05:33:22;;;;;;;;;24.20;22.60;;;;;20.87;69.93;100301.16;5031439;28;8835;-61
2023/07/10 05:35:50;;;;;;;;;30.60;27.40;;;;;20.85;69.96;100295.88;5030708;28;8827;-61
2023/07/10 05:38:18;;;;;;;;;26.00;23.00;;;;;20.85;69.88;100300.44;5031154;28;8843;-60
2023/07/10 05:40:46;;;;;;;;;18.40;18.20;;;;;20.83;70.43;100297.94;5031527;28;9521;-59
2023/07/10 05:43:13;;;;;;;;;31.20;23.60;;;;;20.79;70.19;100296.59;5033685;28;8858;-59
2023/07/10 05:45:41;;;;;;;;;26.00;20.60;;;;;20.76;69.86;100301.50;5034440;28;8832;-61
2023/07/10 05:48:09;;;;;;;;;24.00;22.00;;;;;20.75;70.52;100302.53;5035179;28;9559;-62
2023/07/10 05:50:37;;;;;;;;;30.60;24.40;;;;;20.72;70.64;100311.03;5034740;28;8835;-59
2023/07/10 05:53:04;;;;;;;;;25.40;21.40;;;;;20.73;70.49;100313.53;5034630;28;8813;-59
2023/07/10 05:55:32;;;;;;;;;25.20;23.00;;;;;20.74;70.64;100312.50;5034431;28;8874;-60
2023/07/10 05:58:00;;;;;;;;;24.80;21.80;;;;;20.74;70.64;100314.38;5034205;28;8847;-59
2023/07/10 06:00:28;;;;;;;;;21.20;19.20;;;;;20.74;70.55;100308.97;5034889;28;9795;-59
2023/07/10 06:02:56;;;;;;;;;28.00;22.80;;;;;20.78;69.96;100310.28;5033672;28;8858;-59
2023/07/10 06:05:23;;;;;;;;;18.00;17.20;;;;;20.80;70.38;100311.81;5019675;28;8816;-61
2023/07/10 06:07:51;;;;;;;;;20.20;19.00;;;;;20.80;70.34;100316.38;5034497;28;8852;-60
2023/07/10 06:10:19;;;;;;;;;16.80;16.00;;;;;20.83;70.27;100321.44;5020191;28;8826;-60
2023/07/10 06:12:47;;;;;;;;;22.80;21.00;;;;;20.87;70.31;100317.41;5014688;28;8867;-61
2023/07/10 06:15:16;;;;;;;;;21.20;19.20;;;;;20.91;69.75;100321.41;5014989;28;8837;-59
2023/07/10 06:17:44;;;;;;;;;22.00;22.00;;;;;20.93;69.78;100324.78;5014627;28;8864;-61
2023/07/10 06:20:12;;;;;;;;;21.00;20.60;;;;;20.93;69.90;100330.19;5014676;28;8848;-59
2023/07/10 06:22:39;;;;;;;;;22.20;19.60;;;;;20.92;69.71;100341.25;5020422;28;8876;-59
2023/07/10 06:25:07;;;;;;;;;26.00;24.60;;;;;20.95;69.70;100344.44;5034077;28;8828;-61
2023/07/10 06:27:35;;;;;;;;;23.80;21.60;;;;;20.95;69.72;100339.84;5034023;28;8823;-61
2023/07/10 06:30:03;;;;;;;;;18.20;17.00;;;;;20.94;69.51;100343.56;5032820;28;9036;-61
2023/07/10 06:32:32;;;;;;;;;16.00;15.00;;;;;20.92;70.37;100351.03;5034199;28;8839;-59
2023/07/10 06:35:00;;;;;;;;;14.80;13.80;;;;;20.92;69.75;100351.03;5034108;28;8893;-59
2023/07/10 06:37:29;;;;;;;;;18.60;17.20;;;;;20.93;70.10;100349.16;5033843;28;8828;-59
2023/07/10 06:39:57;;;;;;;;;18.00;15.80;;;;;20.95;69.75;100356.09;5032278;28;8963;-61
2023/07/10 06:42:24;;;;;;;;;14.00;14.00;;;;;20.96;69.89;100357.78;5017682;28;8860;-60
2023/07/10 06:44:52;;;;;;;;;12.20;11.40;;;;;20.94;69.97;100354.41;5014076;28;8846;-59
2023/07/10 06:47:20;;;;;;;;;17.20;16.40;;;;;20.92;70.04;100356.47;5014197;28;8825;-59
2023/07/10 06:49:48;;;;;;;;;15.20;14.40;;;;;20.92;70.23;100358.31;5013902;28;8818;-60
2023/07/10 06:52:16;;;;;;;;;14.40;14.40;;;;;20.92;70.09;100353.75;5014307;28;8837;-59
2023/07/10 06:54:44;;;;;;;;;17.60;16.60;;;;;20.93;69.83;100358.13;5013347;28;8862;-59
2023/07/10 06:57:12;;;;;;;;;18.20;15.80;;;;;20.96;70.24;100357.78;5028931;28;8906;-61
2023/07/10 06:59:40;;;;;;;;;10.00;8.00;;;;;21.03;69.66;100352.50;5033655;28;8843;-58
2023/07/10 07:02:08;;;;;;;;;14.40;14.00;;;;;21.07;69.34;100357.38;5032514;28;9493;-58
2023/07/10 07:04:35;;;;;;;;;18.00;14.80;;;;;21.11;69.29;100366.00;5032887;28;9537;-59
2023/07/10 07:07:03;;;;;;;;;10.40;10.00;;;;;21.16;69.32;100359.00;5030327;28;8828;-59
2023/07/10 07:09:31;;;;;;;;;18.20;11.80;;;;;21.20;69.59;100370.34;5021740;28;8828;-59
2023/07/10 07:11:59;;;;;;;;;16.60;13.80;;;;;21.20;68.85;100360.31;5031439;28;8846;-59
2023/07/10 07:14:27;;;;;;;;;14.80;14.20;;;;;21.24;69.61;100366.22;5019867;28;9541;-59
2023/07/10 07:16:55;;;;;;;;;13.60;13.00;;;;;21.25;69.51;100373.38;5015241;28;8964;-61
2023/07/10 07:19:24;;;;;;;;;16.40;15.20;;;;;21.27;68.99;100365.88;5022071;28;8869;-59
2023/07/10 07:21:52;;;;;;;;;17.00;15.00;;;;;21.32;69.27;100375.16;5033002;28;8958;-59
2023/07/10 07:24:20;;;;;;;;;8.20;8.00;;;;;21.34;69.34;100380.41;5033014;28;9530;-59
2023/07/10 07:26:48;;;;;;;;;12.00;10.20;;;;;21.34;68.79;100378.53;5032889;28;8853;-60
2023/07/10 07:29:18;;;;;;;;;17.40;17.00;;;;;21.34;68.95;100380.41;5032895;28;8820;-59
2023/07/10 07:31:46;;;;;;;;;17.20;14.80;;;;;21.30;69.46;100387.19;5032725;28;8901;-59
2023/07/10 07:34:14;;;;;;;;;15.80;12.80;;;;;21.26;69.38;100381.28;5032620;28;8856;-59
2023/07/10 07:36:42;;;;;;;;;23.60;21.80;;;;;21.17;69.18;100385.09;5032739;28;8953;-60
2023/07/10 07:39:10;;;;;;;;;21.20;18.00;;;;;21.02;70.09;100383.31;5032917;28;8843;-61
2023/07/10 07:41:38;;;;;;;;;18.20;17.00;;;;;20.87;70.51;100382.38;5032911;28;8828;-59
2023/07/10 07:44:06;;;;;;;;;18.00;17.00;;;;;20.83;70.66;100379.16;5033126;28;8840;-59
2023/07/10 07:46:34;;;;;;;;;18.00;17.00;;;;;20.84;70.28;100377.28;5032769;28;8990;-60
2023/07/10 07:49:02;;;;;;;;;18.60;16.20;;;;;20.88;70.27;100375.94;5032373;28;8828;-61
2023/07/10 07:51:33;;;;;;;;;14.20;13.40;;;;;20.94;70.06;100377.94;5032951;28;8820;-61
2023/07/10 07:54:01;;;;;;;;;12.60;10.20;;;;;21.07;69.53;100383.63;5031930;28;8934;-60
2023/07/10 07:56:29;;;;;;;;;11.40;11.00;;;;;21.24;69.12;100377.06;5031518;28;8836;-59
2023/07/10 07:58:57;;;;;;;;;11.20;11.00;;;;;21.40;68.78;100379.69;5031942;28;8858;-59
2023/07/10 08:01:25;;;;;;;;;8.80;8.80;;;;;21.56;68.58;100383.09;5032018;28;8882;-60
2023/07/10 08:03:53;;;;;;;;;11.60;10.60;;;;;21.73;67.80;100390.13;5024073;28;8952;-61
2023/07/10 08:06:22;;;;;;;;;11.20;10.00;;;;;21.88;67.47;100382.03;5023033;28;9481;-61
2023/07/10 08:08:50;;;;;;;;;9.60;9.60;;;;;21.98;67.14;100378.03;5031400;28;9759;-61
2023/07/10 08:11:18;;;;;;;;;8.20;7.00;;;;;22.14;67.13;100382.44;5028307;28;8839;-61
2023/07/10 08:13:46;;;;;;;;;11.00;9.40;;;;;22.27;67.02;100386.22;5030741;28;8824;-59
2023/07/10 08:16:14;;;;;;;;;12.40;11.80;;;;;22.38;67.13;100390.34;5021825;28;8838;-59
2023/07/10 08:18:42;;;;;;;;;9.80;9.20;;;;;22.41;66.69;100380.00;5016730;28;8928;-61
2023/07/10 08:21:10;;;;;;;;;7.20;7.20;;;;;22.51;65.92;100390.56;5031515;28;8982;-59
2023/07/10 08:23:38;;;;;;;;;7.80;7.00;;;;;22.66;66.07;100388.69;5030706;28;8835;-62
2023/07/10 08:26:06;;;;;;;;;8.20;7.40;;;;;22.76;65.63;100389.25;5031542;28;8842;-61
2023/07/10 08:28:34;;;;;;;;;7.60;7.00;;;;;22.81;65.21;100395.81;5031846;28;8846;-59
2023/07/10 08:31:02;;;;;;;;;8.00;8.00;;;;;22.81;65.57;100398.50;5026979;28;8856;-61
2023/07/10 08:33:30;;;;;;;;;4.00;4.00;;;;;22.84;65.49;100398.13;5013040;28;8822;-60
2023/07/10 08:35:58;;;;;;;;;8.00;6.80;;;;;22.99;65.05;100396.22;5026103;28;8957;-61
2023/07/10 08:38:26;;;;;;;;;6.60;6.00;;;;;23.24;64.86;100394.06;5029018;28;8851;-62
2023/07/10 08:40:54;;;;;;;;;8.60;7.60;;;;;23.62;64.26;100399.09;5031278;28;9518;-60
2023/07/10 08:43:21;;;;;;;;;9.00;8.40;;;;;23.84;63.34;100391.75;5026026;28;8831;-61
2023/07/10 08:45:49;;;;;;;;;12.00;11.40;;;;;23.90;63.66;100396.44;5011696;28;8834;-60
2023/07/10 08:48:17;;;;;;;;;12.00;10.60;;;;;23.86;63.62;100392.41;5023124;28;8966;-61
2023/07/10 08:50:47;;;;;;;;;9.60;9.00;;;;;23.77;63.62;100390.84;5031991;28;8924;-59
2023/07/10 08:53:16;;;;;;;;;11.20;9.60;;;;;23.63;63.91;100379.00;5031879;28;8828;-62
2023/07/10 08:55:44;;;;;;;;;10.20;10.20;;;;;23.65;63.73;100378.78;5020945;28;9702;-61
2023/07/10 08:58:12;;;;;;;;;9.20;9.20;;;;;23.73;64.01;100382.22;5012357;28;9500;-60
2023/07/10 09:00:40;;;;;;;;;12.00;10.40;;;;;23.86;63.81;100376.94;5011636;28;8915;-60
2023/07/10 09:03:07;;;;;;;;;13.20;10.00;;;;;23.94;63.53;100373.22;5012177;28;8898;-60
2023/07/10 09:05:36;;;;;;;;;12.00;11.60;;;;;24.05;63.52;100368.06;5018417;28;8812;-61
2023/07/10 09:08:04;;;;;;;;;8.00;8.00;;;;;24.21;62.58;100369.69;5031478;28;9442;-60
2023/07/10 09:10:34;;;;;;;;;12.20;10.60;;;;;24.24;62.41;100366.53;5029964;28;8812;-59
2023/07/10 09:13:03;;;;;;;;;9.60;9.60;;;;;24.24;62.85;100366.53;5019379;28;9530;-61
2023/07/10 09:15:31;;;;;;;;;11.40;9.80;;;;;24.30;62.64;100368.47;5011589;28;8814;-59
2023/07/10 09:18:04;;;;;;;;;12.80;12.00;;;;;24.50;62.43;100364.81;5021534;28;9548;-61
2023/07/10 09:20:31;;;;;;;;;15.40;14.80;;;;;24.76;62.09;100367.75;5035070;28;8912;-61
2023/07/10 09:22:59;;;;;;;;;15.60;13.40;;;;;24.88;61.58;100365.28;5034690;28;8835;-62
2023/07/10 09:25:27;;;;;;;;;13.00;11.60;;;;;24.79;61.76;100363.78;5034547;28;8863;-62
2023/07/10 09:27:55;;;;;;;;;12.20;10.00;;;;;24.78;61.62;100370.25;5034838;28;8850;-61
2023/07/10 09:30:23;;;;;;;;;13.20;11.80;;;;;24.88;61.59;100368.00;5034996;28;8851;-59
2023/07/10 09:32:53;;;;;;;;;15.00;15.00;;;;;25.11;60.75;100363.06;5035266;28;8844;-62
2023/07/10 09:35:21;;;;;;;;;13.20;12.20;;;;;25.39;60.74;100370.06;5034781;28;8834;-61
2023/07/10 09:37:49;;;;;;;;;15.20;13.40;;;;;25.54;60.22;100372.66;5035446;28;9506;-62
2023/07/10 09:40:17;;;;;;;;;15.80;15.00;;;;;25.44;60.88;100378.50;5035218;28;8866;-61
2023/07/10 09:42:46;;;;;;;;;18.20;14.80;;;;;25.19;61.17;100374.59;5035439;28;8850;-62
2023/07/10 09:45:13;;;;;;;;;16.00;14.20;;;;;25.08;61.43;100382.53;5034627;28;8824;-62
2023/07/10 09:47:43;;;;;;;;;19.40;18.00;;;;;25.23;60.92;100377.78;5034928;28;8840;-60
2023/07/10 09:50:11;;;;;;;;;14.80;14.60;;;;;25.36;60.29;100381.41;5034446;28;8945;-62
2023/07/10 09:52:39;;;;;;;;;17.40;16.40;;;;;25.35;61.09;100379.75;5034574;28;8812;-61
2023/07/10 09:55:07;;;;;;;;;13.60;13.20;;;;;25.27;60.75;100381.81;5031665;28;8978;-60
2023/07/10 09:57:36;;;;;;;;;13.20;12.60;;;;;25.25;61.13;100379.25;5014797;28;8844;-61
2023/07/10 10:00:06;;;;;;;;;14.40;13.40;;;;;25.23;61.37;100380.50;5014650;28;8961;-62
2023/07/10 10:02:34;;;;;;;;;18.60;18.00;;;;;25.44;60.49;100378.50;5014724;28;8973;-59
2023/07/10 10:05:02;;;;;;;;;23.20;18.60;;;;;25.78;60.06;100383.78;5014635;28;8849;-61
2023/07/10 10:07:31;;;;;;;;;16.40;15.80;;;;;26.16;58.64;100369.31;5014202;28;8838;-61
2023/07/10 10:09:59;;;;;;;;;16.00;16.00;;;;;26.32;58.37;100377.06;5020781;28;8840;-59
2023/07/10 10:12:27;;;;;;;;;13.60;12.80;;;;;26.52;57.69;100371.59;5033393;28;8812;-59
2023/07/10 10:14:56;;;;;;;;;12.80;11.80;;;;;26.85;57.56;100372.34;5032654;28;8824;-61
2023/07/10 10:17:24;;;;;;;;;14.80;13.20;;;;;27.22;56.55;100366.94;5032797;28;8816;-59
2023/07/10 10:19:52;;;;;;;;;13.20;12.40;;;;;27.64;55.87;100371.75;5024285;28;8834;-59
2023/07/10 10:22:20;;;;;;;;;17.60;17.00;;;;;27.86;55.35;100366.75;5013379;28;8852;-59
2023/07/10 10:24:48;;;;;;;;;16.00;16.00;;;;;28.22;54.44;100370.44;5014241;28;8866;-59
2023/07/10 10:27:16;;;;;;;;;20.80;20.80;;;;;28.43;54.89;100367.31;5032892;28;8816;-59
2023/07/10 10:29:44;;;;;;;;;15.00;13.80;;;;;28.87;53.64;100361.53;5029348;28;8853;-59
2023/07/10 10:32:12;;;;;;;;;24.20;23.20;;;;;29.19;53.10;100371.28;5013795;28;9515;-61
2023/07/10 10:34:40;;;;;;;;;17.60;17.20;;;;;29.09;53.68;100365.50;5012200;28;8834;-60
2023/07/10 10:37:09;;;;;;;;;15.20;15.00;;;;;28.85;53.97;100371.06;5013106;28;9507;-59
2023/07/10 10:39:36;;;;;;;;;12.60;12.00;;;;;28.98;53.48;100369.00;5016940;28;9621;-60
2023/07/10 10:42:04;;;;;;;;;13.00;11.80;;;;;29.18;53.02;100369.59;5032985;28;8843;-59
2023/07/10 10:44:33;;;;;;;;;11.40;11.00;;;;;29.80;52.02;100365.56;5032808;28;8836;-59
2023/07/10 10:47:00;;;;;;;;;7.60;7.60;;;;;30.24;51.68;100370.56;5019002;28;9515;-59
2023/07/10 10:49:28;;;;;;;;;8.80;7.80;;;;;30.05;51.89;100375.28;5014453;28;8830;-59
2023/07/10 10:51:56;;;;;;;;;6.60;6.60;;;;;29.32;53.04;100384.81;5031015;28;8852;-60
2023/07/10 10:54:24;;;;;;;;;2.80;2.80;;;;;28.50;54.56;100390.00;5031649;28;8986;-59
2023/07/10 10:57:01;;;;;;;;;5.20;5.20;;;;;27.70;56.14;100381.78;5016239;28;8841;-60
2023/07/10 10:59:29;;;;;;;;;5.80;4.60;;;;;27.68;56.24;100399.53;5013190;28;8839;-60
2023/07/10 11:01:57;;;;;;;;;8.40;7.00;;;;;28.33;55.10;100386.16;5012871;28;8826;-60
2023/07/10 11:04:25;;;;;;;;;7.00;7.00;;;;;29.01;53.74;100376.81;5011964;28;8920;-61
2023/07/10 11:06:53;;;;;;;;;7.40;7.00;;;;;29.75;51.72;100373.66;5012815;28;8839;-59
2023/07/10 11:09:21;;;;;;;;;4.80;4.80;;;;;30.41;50.29;100369.56;5012610;28;8880;-60
2023/07/10 11:11:49;;;;;;;;;8.00;7.40;;;;;30.85;49.60;100357.94;5015969;28;9488;-60
2023/07/10 11:14:17;;;;;;;;;6.00;6.00;;;;;30.91;49.41;100365.22;5013336;28;8849;-61
2023/07/10 11:16:45;;;;;;;;;8.40;8.40;;;;;31.14;49.03;100365.16;5021804;28;8808;-59
2023/07/10 11:19:13;;;;;;;;;11.00;10.40;;;;;31.37;49.15;100362.34;5032844;28;9601;-59
2023/07/10 11:21:43;;;;;;;;;12.20;11.80;;;;;31.68;47.36;100351.66;5032281;28;8851;-59